Aviation Digital Data Service (ADDS)

Output produced by METARs form (1529 UTC 31 March 2015)
found at http://aviationweather.gov/adds/metars/
 
KORH 311521Z 3115/0112 28013KT P6SM BKN040 
     FM312000 27008KT P6SM BKN040 
     FM010000 VRB03KT P6SM BKN080 
     FM010400 01005KT P6SM SCT120